KPIR/PIR METAR and TAF weather

Enter ICAO airport designator
Station Type Date Time Source
KPIR METAR 2022/01/27 23:16 UTC NOAA

KPIR 272316Z AUTO 02006KT 10SM BKN029 OVC070 M04/M12 A3042 RMK AO2 T10441117


Station Type Date Time Source
KPIR Decoded METAR 2022/01/27 23:16 UTC NOAA

PIERRE REGIONAL AIRPORT, SD, United States (KPIR) 44-23N 100-17W 526M
Jan 27, 2022 - 06:16 PM EST / 2022.01.27 2316 UTC
Wind: from the NNE (020 degrees) at 7 MPH (6 KT):0
Visibility: 10 mile(s):0
Sky conditions: overcast
Temperature: 24.1 F (-4.4 C)
Windchill: 15 F (-9 C):1
Dew Point: 10.9 F (-11.7 C)
Relative Humidity: 56%
Pressure (altimeter): 30.42 in. Hg (1030 hPa)
ob: KPIR 272316Z AUTO 02006KT 10SM BKN029 OVC070 M04/M12 A3042 RMK AO2 T10441117
cycle: 23

Station Type Date Time Source
KPIR TAF 2022/01/27 21:09 UTC NOAA

TAF
AMD KPIR 272106Z 2721/2818 05011KT P6SM VCSH OVC035
FM272300 01012KT P6SM BKN060
FM280100 05008KT P6SM BKN040
FM280600 17006KT P6SM BKN060
FM281700 25012G18KT P6SM FEW250

Example: see airport list